sensor_id;sensor_type;location;lat;lon;timestamp;pressure;altitude;pressure_sealevel;temperature;humidity
46846;BME280;33947;46.804;134.252;2023-01-26T00:02:14;101689.09;;;-30.66;47.49
46846;BME280;33947;46.804;134.252;2023-01-26T00:05:19;101691.56;;;-30.05;47.45
46846;BME280;33947;46.804;134.252;2023-01-26T00:08:23;101746.44;;;-29.03;47.10
46846;BME280;33947;46.804;134.252;2023-01-26T00:11:28;101757.25;;;-29.36;44.34
46846;BME280;33947;46.804;134.252;2023-01-26T00:14:33;101771.56;;;-29.52;47.28
46846;BME280;33947;46.804;134.252;2023-01-26T00:17:52;101690.28;;;-29.40;46.33
46846;BME280;33947;46.804;134.252;2023-01-26T00:20:58;101751.41;;;-29.08;47.92
46846;BME280;33947;46.804;134.252;2023-01-26T00:24:03;101762.91;;;-28.46;46.46
46846;BME280;33947;46.804;134.252;2023-01-26T00:27:08;101721.75;;;-29.12;46.45
46846;BME280;33947;46.804;134.252;2023-01-26T00:30:13;101758.91;;;-28.86;46.78
46846;BME280;33947;46.804;134.252;2023-01-26T00:33:17;101774.75;;;-29.02;47.03
46846;BME280;33947;46.804;134.252;2023-01-26T00:36:22;101766.03;;;-28.19;48.73
46846;BME280;33947;46.804;134.252;2023-01-26T00:39:27;101784.16;;;-27.56;48.65
46846;BME280;33947;46.804;134.252;2023-01-26T00:42:31;101683.41;;;-27.37;47.20
46846;BME280;33947;46.804;134.252;2023-01-26T00:45:35;101767.00;;;-26.27;46.81
46846;BME280;33947;46.804;134.252;2023-01-26T00:48:40;101729.22;;;-26.10;46.83
46846;BME280;33947;46.804;134.252;2023-01-26T00:51:44;101775.38;;;-25.01;46.74
46846;BME280;33947;46.804;134.252;2023-01-26T00:54:48;101761.78;;;-25.09;47.00
46846;BME280;33947;46.804;134.252;2023-01-26T00:57:51;101781.94;;;-24.06;48.65
46846;BME280;33947;46.804;134.252;2023-01-26T01:00:57;101775.38;;;-23.98;45.45
46846;BME280;33947;46.804;134.252;2023-01-26T01:04:02;101763.97;;;-23.76;47.21
46846;BME280;33947;46.804;134.252;2023-01-26T01:07:09;101777.38;;;-22.06;46.24
46846;BME280;33947;46.804;134.252;2023-01-26T01:10:14;101756.03;;;-21.88;42.27
46846;BME280;33947;46.804;134.252;2023-01-26T01:13:19;101778.16;;;-21.22;42.09
46846;BME280;33947;46.804;134.252;2023-01-26T01:16:23;101753.34;;;-20.09;41.92
46846;BME280;33947;46.804;134.252;2023-01-26T01:19:27;101764.94;;;-18.88;39.37
46846;BME280;33947;46.804;134.252;2023-01-26T01:22:32;101763.13;;;-18.66;37.58
46846;BME280;33947;46.804;134.252;2023-01-26T01:25:38;101732.19;;;-19.33;37.81
46846;BME280;33947;46.804;134.252;2023-01-26T01:28:46;101765.16;;;-19.10;38.48
46846;BME280;33947;46.804;134.252;2023-01-26T01:32:03;101722.91;;;-18.63;37.07
46846;BME280;33947;46.804;134.252;2023-01-26T01:35:08;101755.84;;;-17.92;37.04
46846;BME280;33947;46.804;134.252;2023-01-26T01:38:12;101756.81;;;-17.66;36.23
46846;BME280;33947;46.804;134.252;2023-01-26T01:41:18;101740.41;;;-18.18;35.74
46846;BME280;33947;46.804;134.252;2023-01-26T01:44:24;101727.31;;;-17.32;36.36
46846;BME280;33947;46.804;134.252;2023-01-26T01:47:29;101712.81;;;-17.08;34.74
46846;BME280;33947;46.804;134.252;2023-01-26T01:50:38;101707.63;;;-16.50;34.69
46846;BME280;33947;46.804;134.252;2023-01-26T01:53:45;101760.41;;;-16.13;34.54
46846;BME280;33947;46.804;134.252;2023-01-26T01:56:53;101770.16;;;-16.52;34.17
46846;BME280;33947;46.804;134.252;2023-01-26T02:00:08;101761.66;;;-15.92;35.02
46846;BME280;33947;46.804;134.252;2023-01-26T02:03:16;101769.53;;;-15.10;33.89
46846;BME280;33947;46.804;134.252;2023-01-26T02:06:29;101742.72;;;-15.42;32.19
46846;BME280;33947;46.804;134.252;2023-01-26T02:09:37;101741.69;;;-15.79;32.33
46846;BME280;33947;46.804;134.252;2023-01-26T02:12:57;101767.63;;;-15.65;34.66
46846;BME280;33947;46.804;134.252;2023-01-26T02:16:03;101727.63;;;-15.93;33.59
46846;BME280;33947;46.804;134.252;2023-01-26T02:19:13;101755.03;;;-15.99;32.10
46846;BME280;33947;46.804;134.252;2023-01-26T02:28:58;101760.09;;;-16.17;35.45
46846;BME280;33947;46.804;134.252;2023-01-26T02:32:02;101743.31;;;-17.58;33.54
46846;BME280;33947;46.804;134.252;2023-01-26T02:35:07;101731.91;;;-18.97;34.47
46846;BME280;33947;46.804;134.252;2023-01-26T02:38:12;101750.53;;;-18.34;36.35
46846;BME280;33947;46.804;134.252;2023-01-26T02:41:16;101739.88;;;-17.91;35.80
46846;BME280;33947;46.804;134.252;2023-01-26T02:44:42;101712.13;;;-18.69;36.16
46846;BME280;33947;46.804;134.252;2023-01-26T02:47:46;101746.53;;;-18.95;34.93
46846;BME280;33947;46.804;134.252;2023-01-26T02:50:51;101739.25;;;-19.08;36.67
46846;BME280;33947;46.804;134.252;2023-01-26T02:53:55;101727.44;;;-19.23;36.21
46846;BME280;33947;46.804;134.252;2023-01-26T02:56:59;101732.84;;;-19.88;36.11
46846;BME280;33947;46.804;134.252;2023-01-26T03:00:29;101708.38;;;-19.73;37.77
46846;BME280;33947;46.804;134.252;2023-01-26T03:03:32;101721.63;;;-19.22;36.65
46846;BME280;33947;46.804;134.252;2023-01-26T03:06:47;101716.78;;;-19.28;37.91
46846;BME280;33947;46.804;134.252;2023-01-26T03:09:54;101713.94;;;-19.61;37.04
46846;BME280;33947;46.804;134.252;2023-01-26T03:13:02;101717.22;;;-19.39;37.18
46846;BME280;33947;46.804;134.252;2023-01-26T03:16:08;101695.63;;;-19.59;36.01
46846;BME280;33947;46.804;134.252;2023-01-26T03:19:18;101679.25;;;-19.70;35.41
46846;BME280;33947;46.804;134.252;2023-01-26T03:22:43;101702.59;;;-19.72;35.07
46846;BME280;33947;46.804;134.252;2023-01-26T03:26:21;101677.66;;;-20.00;35.04
46846;BME280;33947;46.804;134.252;2023-01-26T03:29:47;101711.06;;;-20.62;34.68
46846;BME280;33947;46.804;134.252;2023-01-26T03:32:57;101681.88;;;-20.15;36.58
46846;BME280;33947;46.804;134.252;2023-01-26T03:36:02;101687.28;;;-19.81;37.17
46846;BME280;33947;46.804;134.252;2023-01-26T03:39:06;101707.69;;;-19.80;35.06
46846;BME280;33947;46.804;134.252;2023-01-26T03:42:10;101711.25;;;-19.70;36.36
46846;BME280;33947;46.804;134.252;2023-01-26T03:45:32;101679.97;;;-19.71;35.64
46846;BME280;33947;46.804;134.252;2023-01-26T03:49:01;101678.53;;;-19.38;36.18
46846;BME280;33947;46.804;134.252;2023-01-26T03:52:29;101672.16;;;-19.34;35.29
46846;BME280;33947;46.804;134.252;2023-01-26T03:55:54;101664.94;;;-19.62;35.01
46846;BME280;33947;46.804;134.252;2023-01-26T03:59:20;101632.47;;;-19.73;35.87
46846;BME280;33947;46.804;134.252;2023-01-26T04:02:45;101695.06;;;-19.26;36.43
46846;BME280;33947;46.804;134.252;2023-01-26T04:06:10;101669.84;;;-19.63;34.69
46846;BME280;33947;46.804;134.252;2023-01-26T04:09:32;101611.66;;;-19.71;36.54
46846;BME280;33947;46.804;134.252;2023-01-26T04:12:42;101660.06;;;-19.14;36.74
46846;BME280;33947;46.804;134.252;2023-01-26T04:15:54;101634.16;;;-19.81;34.90
46846;BME280;33947;46.804;134.252;2023-01-26T04:19:17;101690.91;;;-19.25;35.78
46846;BME280;33947;46.804;134.252;2023-01-26T04:22:40;101685.25;;;-19.46;36.10
46846;BME280;33947;46.804;134.252;2023-01-26T04:25:50;101638.56;;;-19.64;35.04
46846;BME280;33947;46.804;134.252;2023-01-26T04:28:55;101653.66;;;-19.49;35.80
46846;BME280;33947;46.804;134.252;2023-01-26T04:31:59;101668.44;;;-19.76;35.70
46846;BME280;33947;46.804;134.252;2023-01-26T04:35:05;101649.91;;;-20.21;33.94
46846;BME280;33947;46.804;134.252;2023-01-26T04:38:11;101666.72;;;-20.22;34.87
46846;BME280;33947;46.804;134.252;2023-01-26T04:41:17;101656.88;;;-19.51;36.35
46846;BME280;33947;46.804;134.252;2023-01-26T04:44:28;101686.78;;;-19.32;34.90
46846;BME280;33947;46.804;134.252;2023-01-26T04:47:32;101693.50;;;-19.63;35.26
46846;BME280;33947;46.804;134.252;2023-01-26T04:50:38;101699.31;;;-19.10;35.92
46846;BME280;33947;46.804;134.252;2023-01-26T04:53:43;101694.59;;;-18.91;36.19
46846;BME280;33947;46.804;134.252;2023-01-26T04:56:47;101701.19;;;-19.24;34.46
46846;BME280;33947;46.804;134.252;2023-01-26T04:59:55;101694.84;;;-19.43;35.55
46846;BME280;33947;46.804;134.252;2023-01-26T05:03:00;101675.06;;;-19.31;35.92
46846;BME280;33947;46.804;134.252;2023-01-26T05:06:08;101689.91;;;-19.11;36.01
46846;BME280;33947;46.804;134.252;2023-01-26T05:09:14;101693.44;;;-19.56;34.93
46846;BME280;33947;46.804;134.252;2023-01-26T05:12:23;101693.53;;;-19.40;35.84
46846;BME280;33947;46.804;134.252;2023-01-26T05:15:55;101669.53;;;-19.43;36.01
46846;BME280;33947;46.804;134.252;2023-01-26T05:19:17;101501.66;;;-20.14;35.27
46846;BME280;33947;46.804;134.252;2023-01-26T05:22:48;101668.31;;;-19.54;34.97
46846;BME280;33947;46.804;134.252;2023-01-26T05:26:07;101691.72;;;-19.10;35.17
46846;BME280;33947;46.804;134.252;2023-01-26T05:29:36;101651.63;;;-19.22;36.79
46846;BME280;33947;46.804;134.252;2023-01-26T05:32:40;101696.75;;;-18.71;36.06
46846;BME280;33947;46.804;134.252;2023-01-26T05:35:51;101703.84;;;-19.38;34.13
46846;BME280;33947;46.804;134.252;2023-01-26T05:38:55;101692.94;;;-18.90;36.49
46846;BME280;33947;46.804;134.252;2023-01-26T05:42:01;101720.25;;;-18.88;36.03
46846;BME280;33947;46.804;134.252;2023-01-26T05:45:28;101715.09;;;-19.20;34.97
46846;BME280;33947;46.804;134.252;2023-01-26T05:48:35;101702.84;;;-19.01;37.30
46846;BME280;33947;46.804;134.252;2023-01-26T05:51:41;101685.19;;;-18.53;36.42
46846;BME280;33947;46.804;134.252;2023-01-26T05:54:48;101708.34;;;-18.34;35.51
46846;BME280;33947;46.804;134.252;2023-01-26T05:57:53;101683.28;;;-18.63;34.92
46846;BME280;33947;46.804;134.252;2023-01-26T06:00:57;101716.19;;;-18.23;35.82
46846;BME280;33947;46.804;134.252;2023-01-26T06:04:14;101728.25;;;-18.69;33.38
46846;BME280;33947;46.804;134.252;2023-01-26T06:07:26;101730.94;;;-19.37;33.07
46846;BME280;33947;46.804;134.252;2023-01-26T06:10:43;101719.38;;;-20.03;33.00
46846;BME280;33947;46.804;134.252;2023-01-26T06:14:07;101738.59;;;-19.44;34.56
46846;BME280;33947;46.804;134.252;2023-01-26T06:17:16;101710.59;;;-19.84;33.54
46846;BME280;33947;46.804;134.252;2023-01-26T06:20:24;101748.00;;;-18.97;35.54
46846;BME280;33947;46.804;134.252;2023-01-26T06:23:33;101737.84;;;-18.73;35.71
46846;BME280;33947;46.804;134.252;2023-01-26T06:26:37;101727.63;;;-19.29;33.56
46846;BME280;33947;46.804;134.252;2023-01-26T06:29:44;101736.34;;;-19.34;33.95
46846;BME280;33947;46.804;134.252;2023-01-26T06:32:49;101720.69;;;-19.46;34.23
46846;BME280;33947;46.804;134.252;2023-01-26T06:35:54;101725.38;;;-19.18;35.70
46846;BME280;33947;46.804;134.252;2023-01-26T06:38:58;101742.81;;;-19.29;35.63
46846;BME280;33947;46.804;134.252;2023-01-26T06:42:03;101729.59;;;-19.87;34.75
46846;BME280;33947;46.804;134.252;2023-01-26T06:45:07;101754.94;;;-19.64;35.90
46846;BME280;33947;46.804;134.252;2023-01-26T06:48:13;101749.34;;;-19.61;35.25
46846;BME280;33947;46.804;134.252;2023-01-26T06:54:25;101725.03;;;-19.45;34.57
46846;BME280;33947;46.804;134.252;2023-01-26T06:57:55;101750.75;;;-19.56;34.55
46846;BME280;33947;46.804;134.252;2023-01-26T07:01:25;101780.50;;;-19.39;35.37
46846;BME280;33947;46.804;134.252;2023-01-26T07:04:30;101745.38;;;-19.59;34.80
46846;BME280;33947;46.804;134.252;2023-01-26T07:07:34;101775.38;;;-19.70;34.14
46846;BME280;33947;46.804;134.252;2023-01-26T07:10:39;101707.09;;;-20.00;35.53
46846;BME280;33947;46.804;134.252;2023-01-26T07:13:44;101750.56;;;-19.58;35.18
46846;BME280;33947;46.804;134.252;2023-01-26T07:16:48;101732.72;;;-19.59;36.02
46846;BME280;33947;46.804;134.252;2023-01-26T07:19:53;101759.34;;;-19.77;35.55
46846;BME280;33947;46.804;134.252;2023-01-26T07:23:00;101773.63;;;-19.10;35.86
46846;BME280;33947;46.804;134.252;2023-01-26T07:26:05;101791.66;;;-18.99;35.83
46846;BME280;33947;46.804;134.252;2023-01-26T07:29:10;101786.22;;;-19.26;35.30
46846;BME280;33947;46.804;134.252;2023-01-26T07:32:14;101782.44;;;-19.29;35.46
46846;BME280;33947;46.804;134.252;2023-01-26T07:35:19;101773.59;;;-19.71;35.29
46846;BME280;33947;46.804;134.252;2023-01-26T07:38:24;101759.00;;;-19.81;35.56
46846;BME280;33947;46.804;134.252;2023-01-26T07:41:28;101788.09;;;-19.84;35.27
46846;BME280;33947;46.804;134.252;2023-01-26T07:44:33;101787.31;;;-20.06;35.56
46846;BME280;33947;46.804;134.252;2023-01-26T07:47:37;101778.88;;;-20.50;35.30
46846;BME280;33947;46.804;134.252;2023-01-26T07:50:41;101788.63;;;-20.46;36.42
46846;BME280;33947;46.804;134.252;2023-01-26T07:53:47;101744.31;;;-20.80;36.13
46846;BME280;33947;46.804;134.252;2023-01-26T07:56:53;101747.34;;;-21.34;36.15
46846;BME280;33947;46.804;134.252;2023-01-26T07:59:57;101789.00;;;-21.79;37.32
46846;BME280;33947;46.804;134.252;2023-01-26T08:03:01;101775.63;;;-21.93;38.27
46846;BME280;33947;46.804;134.252;2023-01-26T08:06:07;101796.97;;;-21.76;38.30
46846;BME280;33947;46.804;134.252;2023-01-26T08:09:15;101802.72;;;-22.12;38.52
46846;BME280;33947;46.804;134.252;2023-01-26T08:12:19;101803.28;;;-22.35;38.59
46846;BME280;33947;46.804;134.252;2023-01-26T08:15:24;101806.84;;;-22.47;39.61
46846;BME280;33947;46.804;134.252;2023-01-26T08:18:29;101805.81;;;-22.62;39.78
46846;BME280;33947;46.804;134.252;2023-01-26T08:21:33;101808.63;;;-22.74;39.61
46846;BME280;33947;46.804;134.252;2023-01-26T08:24:39;101804.47;;;-22.53;39.87
46846;BME280;33947;46.804;134.252;2023-01-26T08:27:44;101789.59;;;-23.32;40.23
46846;BME280;33947;46.804;134.252;2023-01-26T08:30:50;101778.88;;;-23.44;41.09
46846;BME280;33947;46.804;134.252;2023-01-26T08:33:55;101809.59;;;-23.60;40.69
46846;BME280;33947;46.804;134.252;2023-01-26T08:37:00;101764.88;;;-23.75;41.11
46846;BME280;33947;46.804;134.252;2023-01-26T08:40:08;101793.28;;;-23.56;41.53
46846;BME280;33947;46.804;134.252;2023-01-26T08:43:13;101726.13;;;-24.23;41.58
46846;BME280;33947;46.804;134.252;2023-01-26T08:46:20;101807.50;;;-23.82;41.51
46846;BME280;33947;46.804;134.252;2023-01-26T08:49:24;101825.03;;;-24.15;41.90
46846;BME280;33947;46.804;134.252;2023-01-26T08:52:28;101842.16;;;-24.00;42.34
46846;BME280;33947;46.804;134.252;2023-01-26T08:55:34;101831.59;;;-24.36;42.37
46846;BME280;33947;46.804;134.252;2023-01-26T08:58:39;101830.38;;;-24.90;43.19
46846;BME280;33947;46.804;134.252;2023-01-26T09:01:43;101806.53;;;-24.55;43.38
46846;BME280;33947;46.804;134.252;2023-01-26T09:04:48;101828.31;;;-23.96;42.15
46846;BME280;33947;46.804;134.252;2023-01-26T09:07:54;101830.28;;;-24.14;41.74
46846;BME280;33947;46.804;134.252;2023-01-26T09:10:59;101774.00;;;-24.35;41.89
46846;BME280;33947;46.804;134.252;2023-01-26T09:14:03;101775.03;;;-24.40;42.35
46846;BME280;33947;46.804;134.252;2023-01-26T09:17:07;101770.22;;;-24.51;41.65
46846;BME280;33947;46.804;134.252;2023-01-26T09:20:15;101814.81;;;-24.30;41.90
46846;BME280;33947;46.804;134.252;2023-01-26T09:23:20;101828.75;;;-24.45;41.27
46846;BME280;33947;46.804;134.252;2023-01-26T09:26:24;101804.44;;;-24.78;42.33
46846;BME280;33947;46.804;134.252;2023-01-26T09:29:28;101780.50;;;-24.94;41.65
46846;BME280;33947;46.804;134.252;2023-01-26T09:32:33;101817.78;;;-25.90;42.85
46846;BME280;33947;46.804;134.252;2023-01-26T09:35:37;101851.81;;;-26.04;43.45
46846;BME280;33947;46.804;134.252;2023-01-26T09:38:43;101849.00;;;-25.94;43.95
46846;BME280;33947;46.804;134.252;2023-01-26T09:45:34;101847.75;;;-26.03;44.54
46846;BME280;33947;46.804;134.252;2023-01-26T09:48:48;101841.88;;;-25.67;43.75
46846;BME280;33947;46.804;134.252;2023-01-26T09:52:08;101862.50;;;-25.81;43.50
46846;BME280;33947;46.804;134.252;2023-01-26T09:55:16;101820.13;;;-26.16;43.78
46846;BME280;33947;46.804;134.252;2023-01-26T09:58:37;101745.75;;;-27.20;44.27
46846;BME280;33947;46.804;134.252;2023-01-26T10:01:42;101851.28;;;-25.96;44.13
46846;BME280;33947;46.804;134.252;2023-01-26T10:04:52;101836.53;;;-26.00;42.96
46846;BME280;33947;46.804;134.252;2023-01-26T10:07:58;101795.44;;;-26.56;43.54
46846;BME280;33947;46.804;134.252;2023-01-26T10:11:11;101827.47;;;-26.48;44.20
46846;BME280;33947;46.804;134.252;2023-01-26T10:17:33;101848.59;;;-26.76;44.28
46846;BME280;33947;46.804;134.252;2023-01-26T10:20:42;101843.06;;;-26.98;44.79
46846;BME280;33947;46.804;134.252;2023-01-26T10:23:48;101854.22;;;-26.41;44.38
46846;BME280;33947;46.804;134.252;2023-01-26T10:26:55;101853.22;;;-26.25;43.81
46846;BME280;33947;46.804;134.252;2023-01-26T10:30:00;101811.44;;;-26.91;43.87
46846;BME280;33947;46.804;134.252;2023-01-26T10:33:33;101849.31;;;-26.47;44.09
46846;BME280;33947;46.804;134.252;2023-01-26T10:36:42;101818.34;;;-26.77;43.84
46846;BME280;33947;46.804;134.252;2023-01-26T10:40:00;101854.50;;;-26.75;43.59
46846;BME280;33947;46.804;134.252;2023-01-26T10:43:16;101821.41;;;-26.86;43.36
46846;BME280;33947;46.804;134.252;2023-01-26T10:46:33;101854.44;;;-26.94;43.94
46846;BME280;33947;46.804;134.252;2023-01-26T10:49:44;101844.06;;;-27.50;44.96
46846;BME280;33947;46.804;134.252;2023-01-26T10:53:03;101824.22;;;-27.37;45.30
46846;BME280;33947;46.804;134.252;2023-01-26T10:56:14;101829.00;;;-27.38;44.89
46846;BME280;33947;46.804;134.252;2023-01-26T11:02:49;101831.97;;;-27.47;44.30
46846;BME280;33947;46.804;134.252;2023-01-26T11:06:20;101854.13;;;-27.73;44.64
46846;BME280;33947;46.804;134.252;2023-01-26T11:09:30;101822.06;;;-27.58;44.21
46846;BME280;33947;46.804;134.252;2023-01-26T11:12:34;101854.53;;;-27.58;44.00
46846;BME280;33947;46.804;134.252;2023-01-26T11:15:44;101842.38;;;-27.91;45.14
46846;BME280;33947;46.804;134.252;2023-01-26T11:32:40;101855.66;;;-28.37;46.13
46846;BME280;33947;46.804;134.252;2023-01-26T11:39:47;101850.09;;;-27.89;45.45
46846;BME280;33947;46.804;134.252;2023-01-26T11:47:05;101852.41;;;-28.02;45.10
46846;BME280;33947;46.804;134.252;2023-01-26T11:50:20;101847.47;;;-28.31;45.00
46846;BME280;33947;46.804;134.252;2023-01-26T12:00:59;101842.50;;;-28.88;45.72
46846;BME280;33947;46.804;134.252;2023-01-26T12:04:08;101810.97;;;-29.04;46.68
46846;BME280;33947;46.804;134.252;2023-01-26T12:07:22;101803.28;;;-29.11;46.13
46846;BME280;33947;46.804;134.252;2023-01-26T12:10:44;101814.34;;;-29.26;46.72
46846;BME280;33947;46.804;134.252;2023-01-26T12:17:26;101829.34;;;-28.64;45.89
46846;BME280;33947;46.804;134.252;2023-01-26T12:26:58;101749.16;;;-29.24;45.24
46846;BME280;33947;46.804;134.252;2023-01-26T12:33:32;101796.50;;;-29.01;44.28
46846;BME280;33947;46.804;134.252;2023-01-26T12:37:06;101806.38;;;-29.35;44.37
46846;BME280;33947;46.804;134.252;2023-01-26T12:40:29;101808.22;;;-29.46;44.89
46846;BME280;33947;46.804;134.252;2023-01-26T12:46:55;101810.53;;;-30.02;48.65
46846;BME280;33947;46.804;134.252;2023-01-26T12:50:27;101813.31;;;-29.78;48.81
46846;BME280;33947;46.804;134.252;2023-01-26T12:53:58;101795.81;;;-30.01;48.42
46846;BME280;33947;46.804;134.252;2023-01-26T12:57:04;101775.91;;;-29.95;46.89
46846;BME280;33947;46.804;134.252;2023-01-26T13:00:33;101816.38;;;-30.02;46.76
46846;BME280;33947;46.804;134.252;2023-01-26T13:04:02;101823.84;;;-30.08;47.10
46846;BME280;33947;46.804;134.252;2023-01-26T13:07:29;101819.66;;;-30.24;47.45
46846;BME280;33947;46.804;134.252;2023-01-26T13:10:48;101830.16;;;-30.10;47.19
46846;BME280;33947;46.804;134.252;2023-01-26T13:13:55;101816.16;;;-30.04;47.58
46846;BME280;33947;46.804;134.252;2023-01-26T13:23:44;101794.44;;;-29.32;44.97
46846;BME280;33947;46.804;134.252;2023-01-26T13:26:50;101804.41;;;-29.32;44.96
46846;BME280;33947;46.804;134.252;2023-01-26T13:29:55;101770.94;;;-30.07;45.60
46846;BME280;33947;46.804;134.252;2023-01-26T13:33:23;101798.97;;;-29.96;46.53
46846;BME280;33947;46.804;134.252;2023-01-26T13:36:33;101803.81;;;-30.30;46.86
46846;BME280;33947;46.804;134.252;2023-01-26T13:39:40;101769.16;;;-30.40;47.34
46846;BME280;33947;46.804;134.252;2023-01-26T13:46:45;101793.03;;;-30.52;46.76
46846;BME280;33947;46.804;134.252;2023-01-26T13:49:57;101800.13;;;-30.77;47.32
46846;BME280;33947;46.804;134.252;2023-01-26T13:53:34;101787.22;;;-30.41;47.67
46846;BME280;33947;46.804;134.252;2023-01-26T13:56:59;101731.88;;;-30.84;46.85
46846;BME280;33947;46.804;134.252;2023-01-26T14:00:04;101772.28;;;-30.85;47.30
46846;BME280;33947;46.804;134.252;2023-01-26T14:03:21;101785.31;;;-30.92;47.43
46846;BME280;33947;46.804;134.252;2023-01-26T14:06:28;101770.03;;;-30.45;46.56
46846;BME280;33947;46.804;134.252;2023-01-26T14:09:47;101749.06;;;-31.07;45.62
46846;BME280;33947;46.804;134.252;2023-01-26T14:12:54;101683.56;;;-31.19;46.13
46846;BME280;33947;46.804;134.252;2023-01-26T14:16:04;101638.88;;;-31.13;45.46
46846;BME280;33947;46.804;134.252;2023-01-26T14:19:17;101535.19;;;-31.75;44.88
46846;BME280;33947;46.804;134.252;2023-01-26T14:22:26;101722.50;;;-30.97;44.72
46846;BME280;33947;46.804;134.252;2023-01-26T14:26:03;101653.53;;;-32.01;45.70
46846;BME280;33947;46.804;134.252;2023-01-26T14:29:21;101683.91;;;-32.08;46.60
46846;BME280;33947;46.804;134.252;2023-01-26T14:32:47;101719.75;;;-31.85;46.95
46846;BME280;33947;46.804;134.252;2023-01-26T14:36:02;101744.69;;;-31.46;47.29
46846;BME280;33947;46.804;134.252;2023-01-26T14:39:19;101712.22;;;-31.69;47.18
46846;BME280;33947;46.804;134.252;2023-01-26T14:42:26;101728.66;;;-31.75;47.86
46846;BME280;33947;46.804;134.252;2023-01-26T14:45:33;101734.78;;;-31.46;48.18
46846;BME280;33947;46.804;134.252;2023-01-26T14:52:03;101711.53;;;-31.20;47.44
46846;BME280;33947;46.804;134.252;2023-01-26T14:55:27;101695.28;;;-31.45;46.57
46846;BME280;33947;46.804;134.252;2023-01-26T14:58:32;101724.59;;;-31.75;46.72
46846;BME280;33947;46.804;134.252;2023-01-26T15:01:37;101773.78;;;-31.24;46.90
46846;BME280;33947;46.804;134.252;2023-01-26T15:04:53;101734.41;;;-31.38;45.80
46846;BME280;33947;46.804;134.252;2023-01-26T15:08:18;101756.53;;;-31.61;45.75
46846;BME280;33947;46.804;134.252;2023-01-26T15:11:29;101759.34;;;-31.75;45.93
46846;BME280;33947;46.804;134.252;2023-01-26T15:15:02;101693.63;;;-32.25;46.63
46846;BME280;33947;46.804;134.252;2023-01-26T15:21:19;101748.28;;;-31.23;46.80
46846;BME280;33947;46.804;134.252;2023-01-26T15:24:27;101611.31;;;-31.86;45.80
46846;BME280;33947;46.804;134.252;2023-01-26T15:27:35;101666.59;;;-32.24;45.35
46846;BME280;33947;46.804;134.252;2023-01-26T15:30:53;101656.75;;;-32.76;45.25
46846;BME280;33947;46.804;134.252;2023-01-26T15:34:03;101660.44;;;-33.20;46.07
46846;BME280;33947;46.804;134.252;2023-01-26T15:37:27;101740.09;;;-32.40;46.15
46846;BME280;33947;46.804;134.252;2023-01-26T15:40:38;101658.31;;;-32.98;46.22
46846;BME280;33947;46.804;134.252;2023-01-26T15:43:42;101705.28;;;-32.67;46.44
46846;BME280;33947;46.804;134.252;2023-01-26T15:46:47;101681.25;;;-32.99;47.72
46846;BME280;33947;46.804;134.252;2023-01-26T15:49:55;101709.59;;;-32.65;48.89
46846;BME280;33947;46.804;134.252;2023-01-26T15:53:00;101724.25;;;-31.88;47.74
46846;BME280;33947;46.804;134.252;2023-01-26T15:56:05;101703.28;;;-31.84;46.40
46846;BME280;33947;46.804;134.252;2023-01-26T15:59:13;101714.78;;;-32.06;45.82
46846;BME280;33947;46.804;134.252;2023-01-26T16:02:20;101744.16;;;-32.40;46.16
46846;BME280;33947;46.804;134.252;2023-01-26T16:05:26;101726.69;;;-32.83;46.54
46846;BME280;33947;46.804;134.252;2023-01-26T16:08:33;101718.88;;;-32.22;46.89
46846;BME280;33947;46.804;134.252;2023-01-26T16:11:43;101671.63;;;-32.39;46.17
46846;BME280;33947;46.804;134.252;2023-01-26T16:14:52;101706.97;;;-32.19;45.70
46846;BME280;33947;46.804;134.252;2023-01-26T16:17:57;101671.28;;;-32.83;45.66
46846;BME280;33947;46.804;134.252;2023-01-26T16:21:24;101728.59;;;-32.91;46.29
46846;BME280;33947;46.804;134.252;2023-01-26T16:24:29;101730.84;;;-32.93;47.12
46846;BME280;33947;46.804;134.252;2023-01-26T16:27:33;101692.97;;;-32.61;47.05
46846;BME280;33947;46.804;134.252;2023-01-26T16:30:38;101723.28;;;-31.94;46.53
46846;BME280;33947;46.804;134.252;2023-01-26T16:33:42;101712.25;;;-31.90;45.99
46846;BME280;33947;46.804;134.252;2023-01-26T16:36:49;101646.84;;;-32.60;45.98
46846;BME280;33947;46.804;134.252;2023-01-26T16:39:54;101648.50;;;-32.92;45.05
46846;BME280;33947;46.804;134.252;2023-01-26T16:43:14;101633.59;;;-33.44;45.81
46846;BME280;33947;46.804;134.252;2023-01-26T16:46:23;101676.59;;;-33.53;46.29
46846;BME280;33947;46.804;134.252;2023-01-26T16:49:30;101689.97;;;-33.73;46.62
46846;BME280;33947;46.804;134.252;2023-01-26T16:52:36;101710.31;;;-32.76;46.68
46846;BME280;33947;46.804;134.252;2023-01-26T16:55:43;101694.91;;;-32.70;45.83
46846;BME280;33947;46.804;134.252;2023-01-26T16:58:47;101735.69;;;-32.99;45.67
46846;BME280;33947;46.804;134.252;2023-01-26T17:01:51;101690.72;;;-33.27;45.81
46846;BME280;33947;46.804;134.252;2023-01-26T17:04:56;101718.56;;;-32.66;45.87
46846;BME280;33947;46.804;134.252;2023-01-26T17:08:00;101734.78;;;-32.99;45.23
46846;BME280;33947;46.804;134.252;2023-01-26T17:11:04;101748.53;;;-32.80;45.47
46846;BME280;33947;46.804;134.252;2023-01-26T17:14:10;101735.72;;;-32.62;45.18
46846;BME280;33947;46.804;134.252;2023-01-26T17:17:15;101716.78;;;-33.14;45.20
46846;BME280;33947;46.804;134.252;2023-01-26T17:20:19;101729.75;;;-33.05;45.87